createdAt,value
2019-02-08T00:02:49.110Z,98863.59
2019-02-08T00:06:04.942Z,98871.65
2019-02-08T00:09:20.453Z,98860.97
2019-02-08T00:12:36.001Z,98860.72
2019-02-08T00:15:51.471Z,98861.73
2019-02-08T00:19:06.700Z,98861.91
2019-02-08T00:22:21.925Z,98858.61
2019-02-08T00:25:37.225Z,98862.12
2019-02-08T00:28:52.659Z,98865.13
2019-02-08T00:32:08.344Z,98868.30
2019-02-08T00:35:24.069Z,98880.03
2019-02-08T00:38:39.431Z,98878.47
2019-02-08T00:41:54.782Z,98876.73
2019-02-08T00:45:10.182Z,98888.71
2019-02-08T00:48:25.590Z,98888.54
2019-02-08T00:51:41.053Z,98885.83
2019-02-08T00:54:56.193Z,98901.97
2019-02-08T00:58:11.449Z,98900.16
2019-02-08T01:01:27.044Z,98899.73
2019-02-08T01:04:42.446Z,98897.14
2019-02-08T01:07:57.995Z,98895.49
2019-02-08T01:11:13.563Z,98907.14
2019-02-08T01:14:28.944Z,98907.02
2019-02-08T01:17:44.178Z,98904.52
2019-02-08T01:20:59.420Z,98908.70
2019-02-08T01:24:14.803Z,98900.35
2019-02-08T01:27:30.235Z,98898.81
2019-02-08T01:30:45.570Z,98899.98
2019-02-08T01:34:00.742Z,98887.91
2019-02-08T01:37:16.394Z,98885.37
2019-02-08T01:40:32.778Z,98883.28
2019-02-08T01:43:48.035Z,98888.93
2019-02-08T01:47:03.671Z,98890.02
2019-02-08T01:50:21.158Z,98902.39
2019-02-08T01:53:36.348Z,98901.09
2019-02-08T01:56:51.686Z,98889.61
2019-02-08T02:00:12.676Z,98896.84
2019-02-08T02:03:28.023Z,98900.75
2019-02-08T02:06:43.488Z,98901.97
2019-02-08T02:09:58.865Z,98898.59
2019-02-08T02:13:14.376Z,98900.23
2019-02-08T02:16:29.639Z,98903.37
2019-02-08T02:19:45.092Z,98902.77
2019-02-08T02:23:00.635Z,98898.11
2019-02-08T02:26:16.210Z,98891.26
2019-02-08T02:29:31.563Z,98894.59
2019-02-08T02:32:46.714Z,98888.00
2019-02-08T02:36:02.177Z,98884.81
2019-02-08T02:39:17.620Z,98897.31
2019-02-08T02:42:32.770Z,98894.52
2019-02-08T02:45:48.118Z,98898.70
2019-02-08T02:49:03.576Z,98904.77
2019-02-08T02:52:18.828Z,98900.44
2019-02-08T02:55:34.393Z,98904.96
2019-02-08T02:58:49.624Z,98901.08
2019-02-08T03:02:05.209Z,98912.89
2019-02-08T03:05:20.423Z,98911.70
2019-02-08T03:08:35.814Z,98915.26
2019-02-08T03:11:51.049Z,98909.64
2019-02-08T03:15:06.201Z,98910.65
2019-02-08T03:18:21.649Z,98906.97
2019-02-08T03:21:36.944Z,98910.39
2019-02-08T03:24:52.458Z,98907.23
2019-02-08T03:28:07.812Z,98903.20
2019-02-08T03:31:23.158Z,98904.17
2019-02-08T03:34:38.213Z,98909.55
2019-02-08T03:37:53.362Z,98906.17
2019-02-08T03:41:08.739Z,98906.72
2019-02-08T03:44:23.983Z,98901.46
2019-02-08T03:47:39.218Z,98908.24
2019-02-08T03:50:54.771Z,98903.63
2019-02-08T03:54:09.818Z,98902.56
2019-02-08T03:57:25.072Z,98901.76
2019-02-08T04:00:52.482Z,98894.72
2019-02-08T04:04:14.936Z,98899.27
2019-02-08T04:07:30.265Z,98895.53
2019-02-08T04:10:45.211Z,98893.83
2019-02-08T04:14:00.470Z,98892.56
2019-02-08T04:17:15.609Z,98890.19
2019-02-08T04:20:31.052Z,98901.88
2019-02-08T04:23:46.528Z,98899.73
2019-02-08T04:27:01.663Z,98899.22
2019-02-08T04:30:21.504Z,98900.69
2019-02-08T04:33:37.693Z,98903.52
2019-02-08T04:36:53.153Z,98902.30
2019-02-08T04:40:08.198Z,98894.13
2019-02-08T04:43:23.447Z,98911.50
2019-02-08T04:46:38.900Z,98905.65
2019-02-08T04:49:54.355Z,98906.12
2019-02-08T04:53:11.585Z,98912.01
2019-02-08T04:56:26.809Z,98906.56
2019-02-08T04:59:42.362Z,98910.30
2019-02-08T05:02:57.879Z,98919.28
2019-02-08T05:06:13.158Z,98898.04
2019-02-08T05:09:28.420Z,98911.36
2019-02-08T05:12:43.983Z,98898.64
2019-02-08T05:15:59.340Z,98908.05
2019-02-08T05:19:14.683Z,98904.02
2019-02-08T05:22:29.934Z,98898.02
2019-02-08T05:25:45.615Z,98895.58
2019-02-08T05:29:01.151Z,98896.71
2019-02-08T05:32:16.299Z,98888.49
2019-02-08T05:35:31.759Z,98883.23
2019-02-08T05:38:46.907Z,98884.72
2019-02-08T05:42:02.555Z,98881.88
2019-02-08T05:45:17.826Z,98886.81
2019-02-08T05:48:33.393Z,98876.50
2019-02-08T05:51:48.722Z,98879.19
2019-02-08T05:55:03.978Z,98880.16
2019-02-08T05:58:19.132Z,98880.31
2019-02-08T06:01:34.584Z,98874.99
2019-02-08T06:04:49.932Z,98866.25
2019-02-08T06:08:06.219Z,98863.64
2019-02-08T06:11:21.664Z,98866.03
2019-02-08T06:14:37.219Z,98857.48
2019-02-08T06:17:52.656Z,98860.25
2019-02-08T06:21:08.030Z,98856.43
2019-02-08T06:24:23.309Z,98852.11
2019-02-08T06:27:38.841Z,98848.19
2019-02-08T06:30:54.291Z,98859.20
2019-02-08T06:34:09.955Z,98855.83
2019-02-08T06:37:25.982Z,98865.30
2019-02-08T06:40:41.588Z,98860.43
2019-02-08T06:43:58.289Z,98865.01
2019-02-08T06:47:13.743Z,98869.38
2019-02-08T06:50:29.079Z,98878.30
2019-02-08T06:53:44.348Z,98870.50
2019-02-08T06:57:08.745Z,98879.95
2019-02-08T07:00:30.093Z,98879.19
2019-02-08T07:04:02.217Z,98888.63
2019-02-08T07:07:26.077Z,98884.37
2019-02-08T07:10:55.965Z,98877.56
2019-02-08T07:14:34.922Z,98877.69
2019-02-08T07:18:13.920Z,98877.14
2019-02-08T07:21:50.493Z,98881.03
2019-02-08T07:25:18.690Z,98882.74
2019-02-08T07:28:41.652Z,98885.06
2019-02-08T07:32:07.026Z,98876.09
2019-02-08T07:35:30.055Z,98881.17
2019-02-08T07:39:00.057Z,98883.12
2019-02-08T07:42:39.279Z,98889.16
2019-02-08T07:46:01.575Z,98880.05
2019-02-08T07:49:29.503Z,98897.08
2019-02-08T07:53:11.532Z,98894.35
2019-02-08T07:56:40.941Z,98894.22
2019-02-08T08:00:15.292Z,98887.39
2019-02-08T08:04:01.426Z,98895.86
2019-02-08T08:07:29.980Z,98897.23
2019-02-08T08:11:12.019Z,98897.36
2019-02-08T08:14:51.309Z,98898.28
2019-02-08T08:18:30.988Z,98903.37
2019-02-08T08:21:53.622Z,98890.33
2019-02-08T08:25:24.685Z,98885.48
2019-02-08T08:29:06.966Z,98883.25
2019-02-08T08:32:29.617Z,98875.69
2019-02-08T08:36:19.973Z,98866.98
2019-02-08T08:39:58.163Z,98873.97
2019-02-08T08:43:59.533Z,98864.68
2019-02-08T08:48:30.388Z,98885.61
2019-02-08T08:52:25.928Z,98878.70
2019-02-08T08:56:18.978Z,98881.44
2019-02-08T09:00:12.398Z,98886.30
2019-02-08T09:04:08.991Z,98886.30
2019-02-08T09:08:10.087Z,98876.88
2019-02-08T09:11:52.123Z,98876.06
2019-02-08T09:15:29.203Z,98870.17
2019-02-08T09:19:07.514Z,98874.94
2019-02-08T09:23:10.902Z,98862.06
2019-02-08T09:26:56.884Z,98865.92
2019-02-08T09:30:40.067Z,98867.00
2019-02-08T09:34:32.071Z,98869.28
2019-02-08T09:38:25.404Z,98861.00
2019-02-08T09:42:39.108Z,98866.53
2019-02-08T09:46:29.518Z,98868.07
2019-02-08T09:50:17.768Z,98878.48
2019-02-08T09:54:12.403Z,98868.33
2019-02-08T09:58:02.918Z,98863.14
2019-02-08T10:01:53.888Z,98858.48
2019-02-08T10:06:04.810Z,98852.25
2019-02-08T10:09:54.334Z,98851.81
2019-02-08T10:13:44.319Z,98838.42
2019-02-08T10:17:39.556Z,98846.77
2019-02-08T10:21:18.914Z,98843.20
2019-02-08T10:25:22.523Z,98835.17
2019-02-08T10:29:13.593Z,98832.61
2019-02-08T10:33:22.235Z,98828.45
2019-02-08T10:37:20.352Z,98835.87
2019-02-08T10:41:10.050Z,98835.31
2019-02-08T10:44:51.537Z,98834.91
2019-02-08T10:48:43.027Z,98834.58
2019-02-08T10:52:39.612Z,98821.98
2019-02-08T10:56:37.913Z,98824.06
2019-02-08T11:00:19.685Z,98836.36
2019-02-08T11:04:12.031Z,98824.88
2019-02-08T11:08:12.964Z,98819.19
2019-02-08T11:12:10.359Z,98817.29
2019-02-08T11:16:02.504Z,98800.95
2019-02-08T11:19:16.103Z,98797.13
2019-02-08T11:22:31.539Z,98798.75
2019-02-08T11:25:46.648Z,98788.42
2019-02-08T11:29:01.972Z,98775.14
2019-02-08T11:32:17.158Z,98769.77
2019-02-08T11:35:32.336Z,98760.20
2019-02-08T11:38:47.459Z,98757.53
2019-02-08T11:42:03.998Z,98753.95
2019-02-08T11:45:19.006Z,98752.92
2019-02-08T11:48:34.606Z,98751.50
2019-02-08T11:51:50.024Z,98742.92
2019-02-08T11:55:05.687Z,98743.17
2019-02-08T11:58:21.146Z,98735.25
2019-02-08T12:01:39.365Z,98740.02
2019-02-08T12:04:54.737Z,98737.08
2019-02-08T12:08:10.584Z,98732.06
2019-02-08T12:11:25.736Z,98724.80
2019-02-08T12:14:41.900Z,98717.64
2019-02-08T12:17:57.470Z,98703.23
2019-02-08T12:21:12.730Z,98702.88
2019-02-08T12:24:28.203Z,98696.47
2019-02-08T12:27:43.622Z,98689.88
2019-02-08T12:30:59.178Z,98701.36
2019-02-08T12:34:14.555Z,98692.40
2019-02-08T12:37:29.722Z,98679.30
2019-02-08T12:40:45.347Z,98678.41
2019-02-08T12:44:00.475Z,98677.64
2019-02-08T12:47:15.760Z,98665.13
2019-02-08T12:50:31.248Z,98679.22
2019-02-08T12:53:46.759Z,98656.21
2019-02-08T12:57:01.931Z,98648.79
2019-02-08T13:00:17.445Z,98637.59
2019-02-08T13:03:32.930Z,98645.67
2019-02-08T13:06:48.283Z,98643.42
2019-02-08T13:10:04.005Z,98648.80
2019-02-08T13:13:19.351Z,98648.52
2019-02-08T13:16:35.001Z,98644.94
2019-02-08T13:19:50.199Z,98643.41
2019-02-08T13:23:25.239Z,98636.25
2019-02-08T13:26:40.900Z,98631.02
2019-02-08T13:29:56.261Z,98628.62
2019-02-08T13:33:11.678Z,98629.79
2019-02-08T13:36:27.026Z,98619.42
2019-02-08T13:39:42.526Z,98609.59
2019-02-08T13:42:57.740Z,98601.17
2019-02-08T13:46:13.292Z,98598.72
2019-02-08T13:49:28.448Z,98596.69
2019-02-08T13:52:43.705Z,98597.97
2019-02-08T13:55:58.926Z,98584.92
2019-02-08T13:59:14.427Z,98589.02
2019-02-08T14:02:29.899Z,98569.58
2019-02-08T14:05:45.110Z,98552.21
2019-02-08T14:15:57.510Z,98527.86
2019-02-08T14:19:12.912Z,98553.83
2019-02-08T14:22:27.994Z,98547.04
2019-02-08T14:25:43.476Z,98534.52
2019-02-08T14:28:59.027Z,98522.59
2019-02-08T14:32:14.517Z,98518.89
2019-02-08T14:35:30.028Z,98537.05
2019-02-08T14:38:45.401Z,98526.00
2019-02-08T14:42:00.629Z,98524.45
2019-02-08T14:45:16.549Z,98526.72
2019-02-08T14:48:31.884Z,98532.26
2019-02-08T14:51:47.325Z,98528.66
2019-02-08T14:55:02.878Z,98529.48
2019-02-08T14:58:18.340Z,98529.75
2019-02-08T15:01:33.803Z,98521.19
2019-02-08T15:04:49.246Z,98525.22
2019-02-08T15:08:04.788Z,98528.03
2019-02-08T15:11:20.137Z,98525.08
2019-02-08T15:14:35.533Z,98522.98
2019-02-08T15:17:51.073Z,98521.61
2019-02-08T15:21:06.954Z,98509.50
2019-02-08T15:24:22.289Z,98510.78
2019-02-08T15:27:37.450Z,98503.98
2019-02-08T15:30:53.045Z,98510.02
2019-02-08T15:34:08.187Z,98508.48
2019-02-08T15:37:23.499Z,98510.64
2019-02-08T15:40:47.511Z,98511.58
2019-02-08T15:44:02.688Z,98518.75
2019-02-08T15:47:18.072Z,98511.47
2019-02-08T15:50:33.722Z,98508.53
2019-02-08T15:53:48.978Z,98497.94
2019-02-08T15:57:03.940Z,98498.77
2019-02-08T16:00:22.310Z,98501.02
2019-02-08T16:03:37.792Z,98500.59
2019-02-08T16:06:53.040Z,98489.24
2019-02-08T16:10:07.996Z,98471.61
2019-02-08T16:13:23.367Z,98491.59
2019-02-08T16:16:38.663Z,98472.17
2019-02-08T16:19:54.144Z,98469.59
2019-02-08T16:23:09.827Z,98468.31
2019-02-08T16:26:25.409Z,98459.67
2019-02-08T16:29:40.923Z,98452.76
2019-02-08T16:32:56.723Z,98450.73
2019-02-08T16:36:12.400Z,98440.23
2019-02-08T16:39:27.700Z,98432.38
2019-02-08T16:42:43.070Z,98429.56
2019-02-08T16:45:59.119Z,98435.08
2019-02-08T16:49:14.771Z,98414.51
2019-02-08T16:52:30.209Z,98413.99
2019-02-08T16:55:45.674Z,98413.48
2019-02-08T16:59:01.253Z,98397.66
2019-02-08T17:02:16.529Z,98411.48
2019-02-08T17:05:33.760Z,98393.35
2019-02-08T17:08:49.048Z,98402.27
2019-02-08T17:12:04.403Z,98396.41
2019-02-08T17:15:20.060Z,98397.95
2019-02-08T17:18:36.181Z,98385.31
2019-02-08T17:21:51.487Z,98380.86
2019-02-08T17:25:08.827Z,98371.38
2019-02-08T17:28:24.468Z,98363.20
2019-02-08T17:31:39.799Z,98374.05
2019-02-08T17:34:54.928Z,98361.84
2019-02-08T17:38:10.312Z,98369.11
2019-02-08T17:41:25.757Z,98359.14
2019-02-08T17:44:41.050Z,98355.31
2019-02-08T17:47:56.843Z,98351.11
2019-02-08T17:51:12.331Z,98353.28
2019-02-08T17:54:27.786Z,98348.28
2019-02-08T17:57:43.795Z,98355.55
2019-02-08T18:00:59.057Z,98351.59
2019-02-08T18:04:14.296Z,98353.25
2019-02-08T18:07:29.606Z,98354.27
2019-02-08T18:10:45.081Z,98350.97
2019-02-08T18:14:00.446Z,98339.46
2019-02-08T18:17:16.013Z,98335.88
2019-02-08T18:20:33.802Z,98326.41
2019-02-08T18:24:07.761Z,98318.84
2019-02-08T18:27:23.219Z,98323.77
2019-02-08T18:30:38.675Z,98324.16
2019-02-08T18:33:54.038Z,98310.64
2019-02-08T18:37:09.488Z,98318.53
2019-02-08T18:40:25.143Z,98303.23
2019-02-08T18:43:40.667Z,98299.90
2019-02-08T18:46:56.062Z,98303.45
2019-02-08T18:50:15.717Z,98294.27
2019-02-08T18:53:31.344Z,98294.31
2019-02-08T18:56:46.625Z,98278.40
2019-02-08T19:00:02.003Z,98280.84
2019-02-08T19:03:17.528Z,98275.12
2019-02-08T19:06:33.096Z,98269.25
2019-02-08T19:09:48.443Z,98273.14
2019-02-08T19:13:03.791Z,98267.50
2019-02-08T19:16:19.046Z,98265.73
2019-02-08T19:19:34.300Z,98259.59
2019-02-08T19:22:49.944Z,98248.64
2019-02-08T19:26:05.097Z,98244.81
2019-02-08T19:29:20.665Z,98240.95
2019-02-08T19:32:35.921Z,98238.77
2019-02-08T19:35:51.079Z,98230.25
2019-02-08T19:39:08.870Z,98237.36
2019-02-08T19:42:24.329Z,98230.22
2019-02-08T19:45:39.687Z,98226.84
2019-02-08T19:48:55.076Z,98222.72
2019-02-08T19:52:10.692Z,98218.55
2019-02-08T19:55:26.371Z,98213.69
2019-02-08T19:58:41.500Z,98213.42
2019-02-08T20:01:56.852Z,98205.77
2019-02-08T20:05:14.960Z,98200.89
2019-02-08T20:08:31.144Z,98202.30
2019-02-08T20:11:46.499Z,98191.46
2019-02-08T20:15:01.828Z,98195.26
2019-02-08T20:18:17.164Z,98179.84
2019-02-08T20:21:32.691Z,98177.38
2019-02-08T20:24:47.894Z,98176.41
2019-02-08T20:28:03.367Z,98166.13
2019-02-08T20:31:18.601Z,98152.55
2019-02-08T20:34:34.066Z,98142.59
2019-02-08T20:37:49.171Z,98136.83
2019-02-08T20:41:04.490Z,98133.72
2019-02-08T20:44:20.040Z,98139.55
2019-02-08T20:47:35.383Z,98133.27
2019-02-08T20:50:50.887Z,98135.81
2019-02-08T20:54:06.289Z,98130.45
2019-02-08T20:57:21.628Z,98135.63
2019-02-08T21:00:37.015Z,98123.50
2019-02-08T21:03:52.435Z,98135.88
2019-02-08T21:07:07.902Z,98122.24
2019-02-08T21:10:23.361Z,98111.55
2019-02-08T21:13:38.819Z,98114.72
2019-02-08T21:16:54.192Z,98114.84
2019-02-08T21:20:10.149Z,98108.83
2019-02-08T21:23:25.499Z,98111.19
2019-02-08T21:26:40.950Z,98103.30
2019-02-08T21:29:56.203Z,98107.16
2019-02-08T21:33:12.770Z,98103.42
2019-02-08T21:36:28.032Z,98096.98
2019-02-08T21:39:43.568Z,98085.50
2019-02-08T21:42:59.978Z,98073.50
2019-02-08T21:46:15.424Z,98073.27
2019-02-08T21:49:31.891Z,98075.30
2019-02-08T21:52:48.479Z,98087.56
2019-02-08T21:56:03.807Z,98074.02
2019-02-08T21:59:19.187Z,98072.28
2019-02-08T22:02:34.549Z,98076.38
2019-02-08T22:05:53.028Z,98077.88
2019-02-08T22:09:08.611Z,98073.56
2019-02-08T22:12:24.182Z,98083.47
2019-02-08T22:15:39.738Z,98074.52
2019-02-08T22:18:55.208Z,98061.49
2019-02-08T22:22:10.447Z,98060.97
2019-02-08T22:25:26.210Z,98065.16
2019-02-08T22:28:41.719Z,98061.06
2019-02-08T22:31:57.122Z,98062.95
2019-02-08T22:35:14.267Z,98051.21
2019-02-08T22:38:29.584Z,98038.94
2019-02-08T22:41:44.820Z,98037.80
2019-02-08T22:45:08.353Z,98026.70
2019-02-08T22:48:17.576Z,98021.94
2019-02-08T22:51:31.935Z,98011.77
2019-02-08T22:54:47.280Z,98013.37
2019-02-08T22:58:02.588Z,97989.44
2019-02-08T23:01:26.124Z,97998.06
2019-02-08T23:04:41.409Z,97993.53
2019-02-08T23:07:56.863Z,97997.17
2019-02-08T23:11:12.086Z,98011.47
2019-02-08T23:14:27.231Z,98004.17
2019-02-08T23:17:42.506Z,98008.31
2019-02-08T23:20:58.064Z,98009.05
2019-02-08T23:24:13.319Z,98001.83
2019-02-08T23:27:28.768Z,98015.48
2019-02-08T23:30:44.227Z,97990.98
2019-02-08T23:33:59.578Z,97989.50
2019-02-08T23:37:14.702Z,97981.09
2019-02-08T23:40:30.170Z,97957.86
2019-02-08T23:43:45.839Z,97966.70
2019-02-08T23:47:01.196Z,97962.44
2019-02-08T23:50:16.120Z,97962.65
2019-02-08T23:53:31.388Z,97955.17
2019-02-08T23:56:46.751Z,97936.36
